createdAt,value
2022-12-19T00:00:41.607Z,7.10
2022-12-19T00:01:41.721Z,6.10
2022-12-19T00:02:42.015Z,7.80
2022-12-19T00:03:43.303Z,7.90
2022-12-19T00:04:41.565Z,7.00
2022-12-19T00:05:41.549Z,7.20
2022-12-19T00:06:43.958Z,7.10
2022-12-19T00:07:41.503Z,7.60
2022-12-19T00:08:41.506Z,7.10
2022-12-19T00:09:41.534Z,7.30
2022-12-19T00:10:41.515Z,6.70
2022-12-19T00:11:41.510Z,6.60
2022-12-19T00:12:41.492Z,6.50
2022-12-19T00:13:41.501Z,7.50
2022-12-19T00:14:41.450Z,7.20
2022-12-19T00:15:41.531Z,6.20
2022-12-19T00:16:41.561Z,7.10
2022-12-19T00:17:41.437Z,7.20
2022-12-19T00:18:41.413Z,6.50
2022-12-19T00:19:41.535Z,7.10
2022-12-19T00:20:41.427Z,6.30
2022-12-19T00:21:41.468Z,8.30
2022-12-19T00:22:41.413Z,6.40
2022-12-19T00:23:41.353Z,7.10
2022-12-19T00:24:41.394Z,8.30
2022-12-19T00:25:41.356Z,6.90
2022-12-19T00:26:41.372Z,6.60
2022-12-19T00:27:41.333Z,7.10
2022-12-19T00:28:41.344Z,6.70
2022-12-19T00:29:41.320Z,7.00
2022-12-19T00:30:41.328Z,7.40
2022-12-19T00:31:41.418Z,7.00
2022-12-19T00:32:41.323Z,7.40
2022-12-19T00:33:43.475Z,8.20
2022-12-19T00:34:41.276Z,7.40
2022-12-19T00:35:41.293Z,7.90
2022-12-19T00:36:41.269Z,7.90
2022-12-19T00:37:45.059Z,8.40
2022-12-19T00:38:41.254Z,7.50
2022-12-19T00:39:41.209Z,8.00
2022-12-19T00:40:41.242Z,7.80
2022-12-19T00:41:41.989Z,7.80
2022-12-19T00:42:41.215Z,8.00
2022-12-19T00:43:41.215Z,7.40
2022-12-19T00:44:41.221Z,8.40
2022-12-19T00:45:41.249Z,7.70
2022-12-19T00:46:41.152Z,7.10
2022-12-19T00:47:41.139Z,8.40
2022-12-19T00:48:41.147Z,8.10
2022-12-19T00:49:41.142Z,9.00
2022-12-19T00:50:41.172Z,8.30
2022-12-19T00:51:41.166Z,7.90
2022-12-19T00:52:41.167Z,7.50
2022-12-19T00:53:41.078Z,8.80
2022-12-19T00:54:41.149Z,7.10
2022-12-19T00:55:41.166Z,8.20
2022-12-19T00:56:41.111Z,8.70
2022-12-19T00:57:41.072Z,7.80
2022-12-19T00:58:46.651Z,8.40
2022-12-19T00:59:41.036Z,7.50
2022-12-19T01:00:41.078Z,9.40
2022-12-19T01:01:41.504Z,8.50
2022-12-19T01:02:41.165Z,7.80
2022-12-19T01:03:52.885Z,7.30
2022-12-19T01:04:41.909Z,7.60
2022-12-19T01:05:42.123Z,6.90
2022-12-19T01:06:41.087Z,9.60
2022-12-19T01:07:40.963Z,8.90
2022-12-19T01:08:40.986Z,8.20
2022-12-19T01:09:41.027Z,8.00
2022-12-19T01:10:40.960Z,7.80
2022-12-19T01:11:40.912Z,7.80
2022-12-19T01:12:40.929Z,8.00
2022-12-19T01:13:40.902Z,7.70
2022-12-19T01:14:40.911Z,9.00
2022-12-19T01:15:40.998Z,7.90
2022-12-19T01:16:41.098Z,8.30
2022-12-19T01:17:44.633Z,8.20
2022-12-19T01:18:40.860Z,7.50
2022-12-19T01:19:44.409Z,8.80
2022-12-19T01:20:40.848Z,8.00
2022-12-19T01:21:40.826Z,8.40
2022-12-19T01:22:40.912Z,9.10
2022-12-19T01:23:40.860Z,7.30
2022-12-19T01:24:42.650Z,7.90
2022-12-19T01:25:48.268Z,7.00
2022-12-19T01:26:40.943Z,8.20
2022-12-19T01:27:40.853Z,8.00
2022-12-19T01:28:41.097Z,7.10
2022-12-19T01:29:47.909Z,7.50
2022-12-19T01:30:40.854Z,7.20
2022-12-19T01:31:40.976Z,7.60
2022-12-19T01:32:40.750Z,8.20
2022-12-19T01:33:40.722Z,8.00
2022-12-19T01:34:40.732Z,9.10
2022-12-19T01:35:40.785Z,8.20
2022-12-19T01:36:40.689Z,8.10
2022-12-19T01:37:40.734Z,8.10
2022-12-19T01:38:40.679Z,8.20
2022-12-19T01:39:40.708Z,8.50
2022-12-19T01:40:40.690Z,7.90
2022-12-19T01:41:40.658Z,8.30
2022-12-19T01:42:40.719Z,7.20
2022-12-19T01:43:40.664Z,8.80
2022-12-19T01:44:40.628Z,7.50
2022-12-19T01:45:45.715Z,7.70
2022-12-19T01:46:40.753Z,8.70
2022-12-19T01:47:40.595Z,8.20
2022-12-19T01:48:40.595Z,9.30
2022-12-19T01:49:40.655Z,7.40
2022-12-19T01:50:46.547Z,7.60
2022-12-19T01:51:40.602Z,7.30
2022-12-19T01:52:40.539Z,7.80
2022-12-19T01:53:49.262Z,8.10
2022-12-19T01:54:40.539Z,8.90
2022-12-19T01:55:40.529Z,8.90
2022-12-19T01:56:40.499Z,7.20
2022-12-19T01:57:40.513Z,7.60
2022-12-19T01:58:40.474Z,8.40
2022-12-19T01:59:40.461Z,8.10
2022-12-19T02:00:42.414Z,8.60
2022-12-19T02:01:56.693Z,9.30
2022-12-19T02:02:40.625Z,7.90
2022-12-19T02:03:40.866Z,8.30
2022-12-19T02:04:40.534Z,7.60
2022-12-19T02:05:40.404Z,7.40
2022-12-19T02:06:40.381Z,7.70
2022-12-19T02:07:40.415Z,8.40
2022-12-19T02:08:40.359Z,7.90
2022-12-19T02:09:40.417Z,8.50
2022-12-19T02:10:40.362Z,8.20
2022-12-19T02:11:40.339Z,9.90
2022-12-19T02:12:40.333Z,7.30
2022-12-19T02:13:40.354Z,8.50
2022-12-19T02:14:40.329Z,9.00
2022-12-19T02:15:40.304Z,8.60
2022-12-19T02:16:40.306Z,8.70
2022-12-19T02:17:40.297Z,8.00
2022-12-19T02:18:40.413Z,8.60
2022-12-19T02:19:40.296Z,8.30
2022-12-19T02:20:40.290Z,7.30
2022-12-19T02:21:40.264Z,8.40
2022-12-19T02:22:40.268Z,8.20
2022-12-19T02:23:40.230Z,8.20
2022-12-19T02:24:40.245Z,8.10
2022-12-19T02:25:40.241Z,7.60
2022-12-19T02:26:40.212Z,8.50
2022-12-19T02:27:40.669Z,10.20
2022-12-19T02:28:40.189Z,8.70
2022-12-19T02:29:40.227Z,8.60
2022-12-19T02:30:40.204Z,9.80
2022-12-19T02:31:40.218Z,8.40
2022-12-19T02:32:40.158Z,9.00
2022-12-19T02:33:40.191Z,8.00
2022-12-19T02:34:44.361Z,8.20
2022-12-19T02:35:40.175Z,9.60
2022-12-19T02:36:41.866Z,9.20
2022-12-19T02:37:40.122Z,8.60
2022-12-19T02:38:40.109Z,9.80
2022-12-19T02:39:40.118Z,8.70
2022-12-19T02:40:40.078Z,9.10
2022-12-19T02:41:40.084Z,8.40
2022-12-19T02:42:40.092Z,8.10
2022-12-19T02:43:40.064Z,8.70
2022-12-19T02:44:40.095Z,8.80
2022-12-19T02:45:40.130Z,9.80
2022-12-19T02:46:40.124Z,8.70
2022-12-19T02:47:40.031Z,9.30
2022-12-19T02:48:40.085Z,8.50
2022-12-19T02:49:40.042Z,8.10
2022-12-19T02:50:40.053Z,9.40
2022-12-19T02:51:40.023Z,7.60
2022-12-19T02:52:39.974Z,7.70
2022-12-19T02:53:39.971Z,8.60
2022-12-19T02:54:42.312Z,8.80
2022-12-19T02:55:39.972Z,8.50
2022-12-19T02:56:39.939Z,8.40
2022-12-19T02:57:40.001Z,9.60
2022-12-19T02:58:39.939Z,8.80
2022-12-19T02:59:39.937Z,9.40
2022-12-19T03:00:39.945Z,8.50
2022-12-19T03:01:40.089Z,9.70
2022-12-19T03:02:40.177Z,7.60
2022-12-19T03:03:39.972Z,9.00
2022-12-19T03:04:39.905Z,8.10
2022-12-19T03:05:39.907Z,9.30
2022-12-19T03:06:39.877Z,8.50
2022-12-19T03:07:39.884Z,8.00
2022-12-19T03:08:39.852Z,7.90
2022-12-19T03:09:39.829Z,8.40
2022-12-19T03:10:39.849Z,7.70
2022-12-19T03:11:39.843Z,9.40
2022-12-19T03:12:39.831Z,8.50
2022-12-19T03:13:39.803Z,8.80
2022-12-19T03:14:39.808Z,8.80
2022-12-19T03:15:39.794Z,9.60
2022-12-19T03:16:39.853Z,8.30
2022-12-19T03:17:39.766Z,9.50
2022-12-19T03:18:39.771Z,8.70
2022-12-19T03:19:39.768Z,8.10
2022-12-19T03:20:39.743Z,8.00
2022-12-19T03:21:39.722Z,8.60
2022-12-19T03:22:39.740Z,9.20
2022-12-19T03:23:39.713Z,8.80
2022-12-19T03:24:39.705Z,8.20
2022-12-19T03:25:39.686Z,8.70
2022-12-19T03:26:39.719Z,7.70
2022-12-19T03:27:39.711Z,8.40
2022-12-19T03:28:39.659Z,8.80
2022-12-19T03:29:39.712Z,8.70
2022-12-19T03:30:39.728Z,9.00
2022-12-19T03:31:39.668Z,8.50
2022-12-19T03:32:39.651Z,8.20
2022-12-19T03:33:39.616Z,8.90
2022-12-19T03:34:39.614Z,10.50
2022-12-19T03:35:39.607Z,8.80
2022-12-19T03:36:39.613Z,9.00
2022-12-19T03:37:39.608Z,9.10
2022-12-19T03:38:39.611Z,8.30
2022-12-19T03:39:39.571Z,7.50
2022-12-19T03:40:39.549Z,8.00
2022-12-19T03:41:39.551Z,8.30
2022-12-19T03:42:39.545Z,7.90
2022-12-19T03:43:39.549Z,9.40
2022-12-19T03:44:39.521Z,9.50
2022-12-19T03:45:39.583Z,8.50
2022-12-19T03:46:39.499Z,8.30
2022-12-19T03:47:39.534Z,9.60
2022-12-19T03:48:39.492Z,9.20
2022-12-19T03:49:39.542Z,9.00
2022-12-19T03:50:39.552Z,9.30
2022-12-19T03:51:39.486Z,9.20
2022-12-19T03:52:39.472Z,9.00
2022-12-19T03:53:39.436Z,8.50
2022-12-19T03:54:39.460Z,8.40
2022-12-19T03:55:39.461Z,9.70
2022-12-19T03:56:39.440Z,8.00
2022-12-19T03:57:39.407Z,8.90
2022-12-19T03:58:39.397Z,7.80
2022-12-19T03:59:39.405Z,9.30
2022-12-19T04:00:39.384Z,8.90
2022-12-19T04:01:39.559Z,8.30
2022-12-19T04:02:39.353Z,9.10
2022-12-19T04:03:39.363Z,7.70
2022-12-19T04:04:39.361Z,9.70
2022-12-19T04:05:39.340Z,9.70
2022-12-19T04:06:39.315Z,9.10
2022-12-19T04:07:39.318Z,9.10
2022-12-19T04:08:39.333Z,10.40
2022-12-19T04:09:39.294Z,9.30
2022-12-19T04:10:39.375Z,8.60
2022-12-19T04:11:39.289Z,8.30
2022-12-19T04:12:39.276Z,9.00
2022-12-19T04:13:39.317Z,9.20
2022-12-19T04:14:39.289Z,9.00
2022-12-19T04:15:39.313Z,8.80
2022-12-19T04:16:39.286Z,9.00
2022-12-19T04:17:39.240Z,9.30
2022-12-19T04:18:39.202Z,8.10
2022-12-19T04:19:42.537Z,8.80
2022-12-19T04:20:39.209Z,9.60
2022-12-19T04:21:39.233Z,8.10
2022-12-19T04:22:39.205Z,9.20
2022-12-19T04:23:39.216Z,9.10
2022-12-19T04:24:39.154Z,10.10
2022-12-19T04:25:39.226Z,9.40
2022-12-19T04:26:39.132Z,8.60
2022-12-19T04:27:39.168Z,8.40
2022-12-19T04:28:39.137Z,9.40
2022-12-19T04:29:39.126Z,9.10
2022-12-19T04:30:39.117Z,9.10
2022-12-19T04:31:39.162Z,8.00
2022-12-19T04:32:39.222Z,8.80
2022-12-19T04:33:39.086Z,9.30
2022-12-19T04:34:42.841Z,9.80
2022-12-19T04:35:39.084Z,8.80
2022-12-19T04:36:39.141Z,9.00
2022-12-19T04:37:39.053Z,9.30
2022-12-19T04:38:39.071Z,8.20
2022-12-19T04:39:39.030Z,9.20
2022-12-19T04:40:41.489Z,10.30
2022-12-19T04:41:39.004Z,9.00
2022-12-19T04:42:39.035Z,9.70
2022-12-19T04:43:39.000Z,9.50
2022-12-19T04:44:38.984Z,9.30
2022-12-19T04:45:39.073Z,9.20
2022-12-19T04:46:39.017Z,8.80
2022-12-19T04:47:38.967Z,10.00
2022-12-19T04:48:38.976Z,8.70
2022-12-19T04:49:38.989Z,8.20
2022-12-19T04:50:38.937Z,9.40
2022-12-19T04:51:39.000Z,9.80
2022-12-19T04:52:38.907Z,9.60
2022-12-19T04:53:38.916Z,9.50
2022-12-19T04:54:38.879Z,10.10
2022-12-19T04:55:38.894Z,8.90
2022-12-19T04:56:38.866Z,9.70
2022-12-19T04:57:38.844Z,8.90
2022-12-19T04:58:38.863Z,9.20
2022-12-19T04:59:38.847Z,8.30
2022-12-19T05:00:38.877Z,8.80
2022-12-19T05:01:38.916Z,9.30
2022-12-19T05:02:39.112Z,9.10
2022-12-19T05:03:38.909Z,8.30
2022-12-19T05:04:38.873Z,9.80
2022-12-19T05:05:38.779Z,9.40
2022-12-19T05:06:38.755Z,9.00
2022-12-19T05:07:38.815Z,9.30
2022-12-19T05:08:38.733Z,9.80
2022-12-19T05:09:38.770Z,9.30
2022-12-19T05:10:38.752Z,8.70
2022-12-19T05:11:38.725Z,9.20
2022-12-19T05:12:38.718Z,9.80
2022-12-19T05:13:38.711Z,9.80
2022-12-19T05:14:38.684Z,10.10
2022-12-19T05:15:38.769Z,8.80
2022-12-19T05:16:38.727Z,8.60
2022-12-19T05:17:38.699Z,9.50
2022-12-19T05:18:38.644Z,9.00
2022-12-19T05:19:38.633Z,9.40
2022-12-19T05:20:38.652Z,8.30
2022-12-19T05:21:38.647Z,9.10
2022-12-19T05:22:38.626Z,8.10
2022-12-19T05:23:38.630Z,9.10
2022-12-19T05:24:38.592Z,9.30
2022-12-19T05:25:38.750Z,9.20
2022-12-19T05:26:38.569Z,8.00
2022-12-19T05:27:38.585Z,10.10
2022-12-19T05:28:40.128Z,9.60
2022-12-19T05:29:39.433Z,8.40
2022-12-19T05:30:38.533Z,8.30
2022-12-19T05:31:38.583Z,9.80
2022-12-19T05:32:38.512Z,7.80
2022-12-19T05:33:38.521Z,9.00
2022-12-19T05:34:38.510Z,8.80
2022-12-19T05:35:38.604Z,9.90
2022-12-19T05:36:38.491Z,10.00
2022-12-19T05:37:38.461Z,9.00
2022-12-19T05:38:38.539Z,8.90
2022-12-19T05:39:38.478Z,8.90
2022-12-19T05:40:38.498Z,8.70
2022-12-19T05:41:38.478Z,10.50
2022-12-19T05:42:38.493Z,9.30
2022-12-19T05:43:38.425Z,8.00
2022-12-19T05:44:38.404Z,9.30
2022-12-19T05:45:38.578Z,8.70
2022-12-19T05:46:38.451Z,9.30
2022-12-19T05:47:38.413Z,9.80
2022-12-19T05:48:38.445Z,9.30
2022-12-19T05:49:38.391Z,10.30
2022-12-19T05:50:38.396Z,9.90
2022-12-19T05:51:38.513Z,9.10
2022-12-19T05:52:38.344Z,9.20
2022-12-19T05:53:38.397Z,9.60
2022-12-19T05:54:38.362Z,9.00
2022-12-19T05:55:38.729Z,8.90
2022-12-19T05:56:38.318Z,9.50
2022-12-19T05:57:38.318Z,8.90
2022-12-19T05:58:38.320Z,9.30
2022-12-19T05:59:38.318Z,9.30
2022-12-19T06:00:38.264Z,9.70
2022-12-19T06:01:38.374Z,8.70
2022-12-19T06:02:38.397Z,10.90
2022-12-19T06:03:38.271Z,9.20
2022-12-19T06:04:38.291Z,8.90
2022-12-19T06:05:38.981Z,9.20
2022-12-19T06:06:38.356Z,8.40
2022-12-19T06:07:38.179Z,7.50
2022-12-19T06:08:38.164Z,9.30
2022-12-19T06:09:38.163Z,8.60
2022-12-19T06:10:38.196Z,7.90
2022-12-19T06:11:38.183Z,9.10
2022-12-19T06:12:38.240Z,9.80
2022-12-19T06:13:38.199Z,10.30
2022-12-19T06:14:38.132Z,10.10
2022-12-19T06:15:39.055Z,10.00
2022-12-19T06:16:38.222Z,9.80
2022-12-19T06:17:38.088Z,9.70
2022-12-19T06:18:41.673Z,10.10
2022-12-19T06:19:38.080Z,9.20
2022-12-19T06:20:38.089Z,8.70
2022-12-19T06:21:45.515Z,8.40
2022-12-19T06:22:38.179Z,10.30
2022-12-19T06:23:38.067Z,9.40
2022-12-19T06:24:38.026Z,10.10
2022-12-19T06:25:38.026Z,10.40
2022-12-19T06:26:38.075Z,9.20
2022-12-19T06:27:37.989Z,10.00
2022-12-19T06:28:37.999Z,10.90
2022-12-19T06:29:37.996Z,11.50
2022-12-19T06:30:37.991Z,9.40
2022-12-19T06:31:38.008Z,8.90
2022-12-19T06:32:38.544Z,9.50
2022-12-19T06:33:38.042Z,10.30
2022-12-19T06:35:03.191Z,9.20
2022-12-19T06:35:37.934Z,10.80
2022-12-19T06:36:37.950Z,9.80
2022-12-19T06:37:39.649Z,10.00
2022-12-19T06:38:37.855Z,8.90
2022-12-19T06:39:37.912Z,9.30
2022-12-19T06:40:37.829Z,10.40
2022-12-19T06:41:37.807Z,8.90
2022-12-19T06:42:37.795Z,9.70
2022-12-19T06:43:37.805Z,10.60
2022-12-19T06:44:37.814Z,10.30
2022-12-19T06:45:37.956Z,10.60
2022-12-19T06:46:38.072Z,12.50
2022-12-19T06:47:37.775Z,10.90
2022-12-19T06:48:37.750Z,15.50
2022-12-19T06:49:37.729Z,11.10
2022-12-19T06:50:37.753Z,10.70
2022-12-19T06:51:37.763Z,10.70
2022-12-19T06:52:37.781Z,11.20
2022-12-19T06:53:37.693Z,9.90
2022-12-19T06:54:37.697Z,9.70
2022-12-19T06:55:37.670Z,10.30
2022-12-19T06:56:37.692Z,10.80
2022-12-19T06:57:37.698Z,9.50
2022-12-19T06:58:37.754Z,12.10
2022-12-19T06:59:37.716Z,11.10
2022-12-19T07:00:37.684Z,11.00
2022-12-19T07:01:38.198Z,11.00
2022-12-19T07:02:37.733Z,12.80
2022-12-19T07:03:37.631Z,10.90
2022-12-19T07:04:37.583Z,10.80
2022-12-19T07:05:37.645Z,11.00
2022-12-19T07:06:37.667Z,12.00
2022-12-19T07:07:37.601Z,9.90
2022-12-19T07:08:37.546Z,10.00
2022-12-19T07:09:37.558Z,11.30
2022-12-19T07:10:37.713Z,9.40
2022-12-19T07:11:37.536Z,10.80
2022-12-19T07:12:37.541Z,10.70
2022-12-19T07:13:37.792Z,9.00
2022-12-19T07:14:37.499Z,10.10
2022-12-19T07:15:37.487Z,11.40
2022-12-19T07:16:37.627Z,10.10
2022-12-19T07:17:37.474Z,10.00
2022-12-19T07:18:37.532Z,11.30
2022-12-19T07:19:37.458Z,10.10
2022-12-19T07:20:41.820Z,10.30
2022-12-19T07:21:37.440Z,10.00
2022-12-19T07:22:37.454Z,9.90
2022-12-19T07:23:37.437Z,10.50
2022-12-19T07:24:37.417Z,10.20
2022-12-19T07:25:37.391Z,10.60
2022-12-19T07:26:37.387Z,9.50
2022-12-19T07:27:37.384Z,9.50
2022-12-19T07:28:37.393Z,9.80
2022-12-19T07:29:37.390Z,9.40
2022-12-19T07:30:37.382Z,9.20
2022-12-19T07:31:37.452Z,9.10
2022-12-19T07:32:37.411Z,9.60
2022-12-19T07:33:37.317Z,9.00
2022-12-19T07:34:37.323Z,9.70
2022-12-19T07:35:37.358Z,9.00
2022-12-19T07:36:37.318Z,9.50
2022-12-19T07:37:37.286Z,9.70
2022-12-19T07:38:37.305Z,9.90
2022-12-19T07:39:37.505Z,10.40
2022-12-19T07:40:38.144Z,9.80
2022-12-19T07:41:37.271Z,9.70
2022-12-19T07:42:37.230Z,9.60
2022-12-19T07:43:37.233Z,10.30
2022-12-19T07:44:37.246Z,10.70
2022-12-19T07:45:37.250Z,9.60
2022-12-19T07:46:37.305Z,9.30
2022-12-19T07:47:37.206Z,10.00
2022-12-19T07:48:37.308Z,9.00
2022-12-19T07:49:37.269Z,10.90
2022-12-19T07:50:37.210Z,11.40
2022-12-19T07:51:37.167Z,10.10
2022-12-19T07:52:37.137Z,9.00
2022-12-19T07:53:37.171Z,10.50
2022-12-19T07:54:37.109Z,9.70
2022-12-19T07:55:37.118Z,9.90
2022-12-19T07:56:37.109Z,10.20
2022-12-19T07:57:37.150Z,11.10
2022-12-19T07:58:37.633Z,9.00
2022-12-19T07:59:39.230Z,9.80
2022-12-19T08:00:37.044Z,10.20
2022-12-19T08:01:37.153Z,9.50
2022-12-19T08:02:37.198Z,10.20
2022-12-19T08:03:37.083Z,9.60
2022-12-19T08:04:37.039Z,10.10
2022-12-19T08:05:37.012Z,9.50
2022-12-19T08:06:41.132Z,9.10
2022-12-19T08:07:36.993Z,10.20
2022-12-19T08:08:36.998Z,9.30
2022-12-19T08:09:36.978Z,9.80
2022-12-19T08:10:36.957Z,8.50
2022-12-19T08:11:36.948Z,10.20
2022-12-19T08:12:36.975Z,9.30
2022-12-19T08:13:40.794Z,11.40
2022-12-19T08:14:37.081Z,10.90
2022-12-19T08:15:36.920Z,9.20
2022-12-19T08:16:55.696Z,10.40
2022-12-19T08:17:36.956Z,9.60
2022-12-19T08:18:36.903Z,9.00
2022-12-19T08:19:36.878Z,10.00
2022-12-19T08:20:36.882Z,9.70
2022-12-19T08:21:36.923Z,10.20
2022-12-19T08:22:36.838Z,11.40
2022-12-19T08:23:36.848Z,10.40
2022-12-19T08:24:36.847Z,10.20
2022-12-19T08:25:36.839Z,10.50
2022-12-19T08:26:41.814Z,10.80
2022-12-19T08:27:36.803Z,9.90
2022-12-19T08:28:36.791Z,10.70
2022-12-19T08:29:36.799Z,9.60
2022-12-19T08:30:36.921Z,8.90
2022-12-19T08:31:36.749Z,10.70
2022-12-19T08:32:36.780Z,10.40
2022-12-19T08:33:36.827Z,10.30
2022-12-19T08:34:36.730Z,9.30
2022-12-19T08:35:36.709Z,10.10
2022-12-19T08:36:36.718Z,10.00
2022-12-19T08:37:36.726Z,9.80
2022-12-19T08:38:36.723Z,9.30
2022-12-19T08:39:36.688Z,10.30
2022-12-19T08:40:36.705Z,10.50
2022-12-19T08:41:36.868Z,10.60
2022-12-19T08:42:36.649Z,9.50
2022-12-19T08:43:36.668Z,9.30
2022-12-19T08:44:36.710Z,10.40
2022-12-19T08:45:36.708Z,9.90
2022-12-19T08:46:37.117Z,10.20
2022-12-19T08:47:36.598Z,11.20
2022-12-19T08:48:36.594Z,10.40
2022-12-19T08:49:36.606Z,9.20
2022-12-19T08:50:36.594Z,10.90
2022-12-19T08:51:36.624Z,9.10
2022-12-19T08:52:36.663Z,10.70
2022-12-19T08:53:36.583Z,10.80
2022-12-19T08:54:36.643Z,10.60
2022-12-19T08:55:36.671Z,9.80
2022-12-19T08:56:36.592Z,11.00
2022-12-19T08:57:36.523Z,10.30
2022-12-19T08:58:36.619Z,11.50
2022-12-19T08:59:36.513Z,8.80
2022-12-19T09:00:36.488Z,9.70
2022-12-19T09:01:36.567Z,10.20
2022-12-19T09:02:36.745Z,9.30
2022-12-19T09:04:06.553Z,10.20
2022-12-19T09:05:59.556Z,10.40
2022-12-19T09:06:15.483Z,9.00
2022-12-19T09:06:36.495Z,9.80
2022-12-19T09:07:38.611Z,8.80
2022-12-19T09:08:36.476Z,9.80
2022-12-19T09:09:36.398Z,10.70
2022-12-19T09:10:36.590Z,10.20
2022-12-19T09:11:45.936Z,9.90
2022-12-19T09:12:36.394Z,9.90
2022-12-19T09:13:36.361Z,10.00
2022-12-19T09:14:36.336Z,10.80
2022-12-19T09:15:36.328Z,9.70
2022-12-19T09:16:36.408Z,10.00
2022-12-19T09:17:36.347Z,10.00
2022-12-19T09:18:36.322Z,10.10
2022-12-19T09:19:36.398Z,9.20
2022-12-19T09:20:36.304Z,10.10
2022-12-19T09:21:36.300Z,10.30
2022-12-19T09:22:36.275Z,9.10
2022-12-19T09:23:36.323Z,9.00
2022-12-19T09:24:36.249Z,8.70
2022-12-19T09:25:36.234Z,10.50
2022-12-19T09:26:36.229Z,10.10
2022-12-19T09:28:17.477Z,10.00
2022-12-19T09:28:36.228Z,10.10
2022-12-19T09:29:36.216Z,9.30
2022-12-19T09:30:36.272Z,9.80
2022-12-19T09:31:36.176Z,9.10
2022-12-19T09:32:36.169Z,9.00
2022-12-19T09:33:42.924Z,9.90
2022-12-19T09:34:38.328Z,10.30
2022-12-19T09:35:36.148Z,10.40
2022-12-19T09:36:36.196Z,8.60
2022-12-19T09:37:36.153Z,10.30
2022-12-19T09:38:38.225Z,8.70
2022-12-19T09:39:36.159Z,10.40
2022-12-19T09:40:36.102Z,9.30
2022-12-19T09:41:36.107Z,11.50
2022-12-19T09:42:40.758Z,9.40
2022-12-19T09:43:41.091Z,9.70
2022-12-19T09:44:36.064Z,9.20
2022-12-19T09:45:36.057Z,9.70
2022-12-19T09:46:36.138Z,8.40
2022-12-19T09:47:36.047Z,8.80
2022-12-19T09:48:36.020Z,8.40
2022-12-19T09:49:36.003Z,8.70
2022-12-19T09:50:36.038Z,9.40
2022-12-19T09:51:36.010Z,9.60
2022-12-19T09:52:36.039Z,9.30
2022-12-19T09:53:35.987Z,8.60
2022-12-19T09:54:35.976Z,9.90
2022-12-19T09:55:35.967Z,10.30
2022-12-19T09:56:45.694Z,8.70
2022-12-19T09:57:35.942Z,9.40
2022-12-19T09:58:35.917Z,9.30
2022-12-19T09:59:41.570Z,10.00
2022-12-19T10:00:35.948Z,9.70
2022-12-19T10:01:36.064Z,9.60
2022-12-19T10:02:36.246Z,9.70
2022-12-19T10:03:39.771Z,9.40
2022-12-19T10:04:35.883Z,10.60
2022-12-19T10:07:09.381Z,9.40
2022-12-19T10:07:45.385Z,9.10
2022-12-19T10:08:09.689Z,10.10
2022-12-19T10:08:38.070Z,8.50
2022-12-19T10:10:50.333Z,9.40
2022-12-19T10:12:51.956Z,9.30
2022-12-19T10:12:59.585Z,9.50
2022-12-19T10:13:56.918Z,10.20
2022-12-19T10:14:56.954Z,9.40
2022-12-19T10:16:00.136Z,11.10
2022-12-19T10:17:23.115Z,10.40
2022-12-19T10:17:56.880Z,10.40
2022-12-19T10:18:57.358Z,11.30
2022-12-19T10:19:56.841Z,11.20
2022-12-19T10:20:56.839Z,10.40
2022-12-19T10:22:17.773Z,9.90
2022-12-19T10:22:56.844Z,9.10
2022-12-19T10:23:56.850Z,9.00
2022-12-19T10:25:03.869Z,9.60
2022-12-19T10:25:56.791Z,9.80
2022-12-19T10:26:56.819Z,10.10
2022-12-19T10:27:59.856Z,8.90
2022-12-19T10:28:56.806Z,10.10
2022-12-19T10:29:56.767Z,8.90
2022-12-19T10:30:56.905Z,10.20
2022-12-19T10:31:57.025Z,9.40
2022-12-19T10:32:57.992Z,10.60
2022-12-19T10:33:56.963Z,11.00
2022-12-19T10:34:56.744Z,9.40
2022-12-19T10:35:57.554Z,8.20
2022-12-19T10:37:56.733Z,8.50
2022-12-19T10:38:56.681Z,9.80
2022-12-19T10:39:56.666Z,9.50
2022-12-19T10:40:56.661Z,9.90
2022-12-19T10:41:56.650Z,9.50
2022-12-19T10:42:56.721Z,10.60
2022-12-19T10:43:56.645Z,11.40
2022-12-19T10:44:56.686Z,9.20
2022-12-19T10:45:57.563Z,9.90
2022-12-19T10:46:56.673Z,9.80
2022-12-19T10:47:56.590Z,9.40
2022-12-19T10:48:56.583Z,9.40
2022-12-19T10:49:56.574Z,9.80
2022-12-19T10:50:56.659Z,9.90
2022-12-19T10:51:56.626Z,9.90
2022-12-19T10:52:56.552Z,9.90
2022-12-19T10:53:56.531Z,10.50
2022-12-19T10:54:56.526Z,9.90
2022-12-19T10:55:56.532Z,9.40
2022-12-19T10:56:56.582Z,10.40
2022-12-19T10:57:56.537Z,9.50
2022-12-19T10:58:56.575Z,9.00
2022-12-19T10:59:56.465Z,10.40
2022-12-19T11:00:56.481Z,9.60
2022-12-19T11:02:00.794Z,9.90
2022-12-19T11:02:56.625Z,8.80
2022-12-19T11:03:56.487Z,10.00
2022-12-19T11:04:56.525Z,9.00
2022-12-19T11:05:57.733Z,10.60
2022-12-19T11:06:56.455Z,9.10
2022-12-19T11:07:56.398Z,9.30
2022-12-19T11:08:56.353Z,9.50
2022-12-19T11:10:34.271Z,9.50
2022-12-19T11:13:08.483Z,9.10
2022-12-19T11:25:05.126Z,9.70
2022-12-19T11:32:14.288Z,9.60
2022-12-19T11:32:42.031Z,9.10
2022-12-19T11:32:49.362Z,10.10
2022-12-19T11:33:48.805Z,10.00
2022-12-19T11:34:48.780Z,9.10
2022-12-19T11:35:48.700Z,10.30
2022-12-19T11:36:48.674Z,10.10
2022-12-19T11:37:48.826Z,9.50
2022-12-19T11:38:48.667Z,10.40
2022-12-19T11:39:48.706Z,9.80
2022-12-19T11:40:49.677Z,10.20
2022-12-19T11:41:48.603Z,10.40
2022-12-19T11:42:55.501Z,11.30
2022-12-19T11:43:48.654Z,10.20
2022-12-19T11:44:48.579Z,10.00
2022-12-19T11:45:48.597Z,10.40
2022-12-19T11:46:48.598Z,9.90
2022-12-19T11:47:48.542Z,11.10
2022-12-19T11:48:48.617Z,11.40
2022-12-19T11:49:48.597Z,10.20
2022-12-19T11:50:48.562Z,10.40
2022-12-19T11:51:48.574Z,10.40
2022-12-19T11:53:07.701Z,9.50
2022-12-19T11:53:48.552Z,9.50
2022-12-19T11:54:48.489Z,10.10
2022-12-19T11:55:48.464Z,9.60
2022-12-19T11:56:48.464Z,11.20
2022-12-19T11:57:48.580Z,10.40
2022-12-19T11:58:48.573Z,9.90
2022-12-19T11:59:48.581Z,10.70
2022-12-19T12:00:48.403Z,9.80
2022-12-19T12:01:48.482Z,9.90
2022-12-19T12:02:48.425Z,9.90
2022-12-19T12:04:01.152Z,10.30
2022-12-19T12:04:48.427Z,9.60
2022-12-19T12:05:48.406Z,10.70
2022-12-19T12:06:48.445Z,9.80
2022-12-19T12:09:06.980Z,10.30
2022-12-19T12:19:43.203Z,10.50
2022-12-19T12:35:30.231Z,10.60
2022-12-19T12:38:21.885Z,10.30
2022-12-19T12:39:04.095Z,10.80
2022-12-19T12:40:04.485Z,9.60
2022-12-19T12:41:04.227Z,10.50
2022-12-19T12:42:03.888Z,10.20
2022-12-19T12:43:03.822Z,10.90
2022-12-19T12:44:05.053Z,12.30
2022-12-19T12:45:03.838Z,10.60
2022-12-19T12:46:05.289Z,10.10
2022-12-19T12:47:07.841Z,9.70
2022-12-19T12:48:05.777Z,9.60
2022-12-19T12:49:03.811Z,10.10
2022-12-19T12:50:04.617Z,10.50
2022-12-19T12:51:04.291Z,9.00
2022-12-19T12:52:04.615Z,9.70
2022-12-19T12:53:04.200Z,9.30
2022-12-19T12:54:03.888Z,9.40
2022-12-19T12:55:04.161Z,9.80
2022-12-19T12:56:04.381Z,9.10
2022-12-19T12:57:03.872Z,9.40
2022-12-19T12:58:09.226Z,8.90
2022-12-19T12:59:03.894Z,9.50
2022-12-19T13:00:04.091Z,9.30
2022-12-19T13:01:04.315Z,11.00
2022-12-19T13:02:05.625Z,9.80
2022-12-19T13:03:07.293Z,9.30
2022-12-19T13:04:04.097Z,10.50
2022-12-19T13:05:04.896Z,10.00
2022-12-19T13:06:04.405Z,9.70
2022-12-19T13:07:04.280Z,9.60
2022-12-19T13:08:03.847Z,10.20
2022-12-19T13:09:03.841Z,10.00
2022-12-19T13:10:04.642Z,10.30
2022-12-19T13:11:04.811Z,10.00
2022-12-19T13:12:03.679Z,9.70
2022-12-19T13:13:08.006Z,8.80
2022-12-19T13:14:04.064Z,9.70
2022-12-19T13:15:04.658Z,10.00
2022-12-19T13:16:04.120Z,9.50
2022-12-19T13:17:03.890Z,9.30
2022-12-19T13:18:04.327Z,9.80
2022-12-19T13:19:04.077Z,9.20
2022-12-19T13:20:05.439Z,10.20
2022-12-19T13:21:03.914Z,10.70
2022-12-19T13:22:03.973Z,9.70
2022-12-19T13:23:04.068Z,10.10
2022-12-19T13:24:03.602Z,10.00
2022-12-19T13:25:03.708Z,9.40
2022-12-19T13:26:03.602Z,8.40
2022-12-19T13:27:03.603Z,9.50
2022-12-19T13:28:04.744Z,9.40
2022-12-19T13:29:04.013Z,9.80
2022-12-19T13:30:03.559Z,11.10
2022-12-19T13:31:19.742Z,9.20
2022-12-19T13:32:03.665Z,9.70
2022-12-19T13:33:04.561Z,10.40
2022-12-19T13:34:04.228Z,9.80
2022-12-19T13:36:03.805Z,10.30
2022-12-19T13:40:08.886Z,10.20
2022-12-19T13:40:20.417Z,10.00
2022-12-19T13:41:02.446Z,9.50
2022-12-19T13:42:02.136Z,9.60
2022-12-19T13:43:10.816Z,9.90
2022-12-19T13:44:02.085Z,9.80
2022-12-19T13:45:02.582Z,9.70
2022-12-19T13:46:02.233Z,9.50
2022-12-19T13:47:02.029Z,9.10
2022-12-19T13:48:03.777Z,10.50
2022-12-19T13:49:02.960Z,10.10
2022-12-19T13:50:02.523Z,10.00
2022-12-19T13:51:01.967Z,9.60
2022-12-19T13:52:02.064Z,10.10
2022-12-19T13:53:01.939Z,9.40
2022-12-19T13:54:02.379Z,9.30
2022-12-19T13:55:01.934Z,10.10
2022-12-19T13:56:02.410Z,9.40
2022-12-19T13:57:09.185Z,9.90
2022-12-19T13:58:02.318Z,9.40
2022-12-19T13:59:02.000Z,10.50
2022-12-19T14:00:01.984Z,9.60
2022-12-19T14:01:02.077Z,8.80
2022-12-19T14:02:02.233Z,10.40